Dardanelle, CA (95314)

3:23 PM PST on February 11, 2016 (GMT -0800)
MCMWTC BRIDGEPORT, CA | | Change Station
CLOSE
Current Station
Airport
Location: MCMWTC BRIDGEPORT, CA,
Elevation: 6745 ft
Nearby Weather Stations

Elev 6745 ft 38.36 °N, 119.52 °W | Updated 31 minutes ago

Clear
Clear
63 °F
Feels Like 63 °F
N
9
Wind Variable Wind from SW

Today
High -- | Low -- °F
--% Chance of Precip.
Yesterday
High -- | Low -- °F
Precip. -- in
Pressure 30.20 in
Visibility 10.0 miles
Clouds Clear
Dew Point 11 °F
Humidity 13%
Rainfall 0.00 in
Snow Depth Not available.
6:54 AM 5:32 PM
Waxing Crescent, 15% visible
METAR KBAN 112252Z AUTO 23008KT 10SM CLR 17/M12 A3028 RMK AO2 SLP226 T01721117
Pressure 30.20 in
Visibility 10.0 miles
Clouds Clear
Dew Point 11 °F
Humidity 13%
Rainfall 0.00 in
Snow Depth Not available.
6:54 AM 5:32 PM
Waxing Crescent, 15% visible
METAR KBAN 112252Z AUTO 23008KT 10SM CLR 17/M12 A3028 RMK AO2 SLP226 T01721117

10-Day Weather Forecast

Almanac

Astronomy

Feb. 11, 2016 Rise Set
Actual Time
Civil Twilight
Nautical Twilight
Astronomical Twilight
Moon
Length of Visible Light
Length of Day
Tomorrow will be .
, % of the Moon is Illuminated

Today's Extremes

State Highs State Lows

Community

WunderPhotos

Upload Photos

1,892,180 photos uploaded!

WunderBlog® & News

Nearby

Air Quality

  Air Quality AQ Index Pollutant
Not available.

Snow Depth

Station Depth Elevation

Earthquake Activity

City Distance Mag. Time & Date
Minimum magnitude displayed is 2.5.

Coastal Water Temperatures

Place Temperature

Stations

Nearby Weather Stations

Station Location Temp. Windchill Dew Point Humidity Wind Precip. Elev Updated Type
                   

Watches & Warnings

There are currently no watches in effect.